sensor_id;sensor_type;location;lat;lon;timestamp;temperature;humidity
19734;DHT22;10018;51.230;7.860;2024-01-27T00:01:51;4.70;99.90
19734;DHT22;10018;51.230;7.860;2024-01-27T00:04:16;4.70;99.90
19734;DHT22;10018;51.230;7.860;2024-01-27T00:06:42;4.60;99.90
19734;DHT22;10018;51.230;7.860;2024-01-27T00:09:10;4.50;99.90
19734;DHT22;10018;51.230;7.860;2024-01-27T00:11:36;4.50;99.90
19734;DHT22;10018;51.230;7.860;2024-01-27T00:14:01;4.50;99.90
19734;DHT22;10018;51.230;7.860;2024-01-27T00:16:29;4.40;99.90
19734;DHT22;10018;51.230;7.860;2024-01-27T00:18:55;4.30;99.90
19734;DHT22;10018;51.230;7.860;2024-01-27T00:21:20;4.30;99.90
19734;DHT22;10018;51.230;7.860;2024-01-27T00:23:46;4.10;99.90
19734;DHT22;10018;51.230;7.860;2024-01-27T00:26:12;4.00;99.90
19734;DHT22;10018;51.230;7.860;2024-01-27T00:28:37;4.10;99.90
19734;DHT22;10018;51.230;7.860;2024-01-27T00:31:03;4.00;99.90
19734;DHT22;10018;51.230;7.860;2024-01-27T00:33:29;4.00;99.90
19734;DHT22;10018;51.230;7.860;2024-01-27T00:35:54;4.00;99.90
19734;DHT22;10018;51.230;7.860;2024-01-27T00:38:22;4.10;99.90
19734;DHT22;10018;51.230;7.860;2024-01-27T00:40:48;4.00;99.90
19734;DHT22;10018;51.230;7.860;2024-01-27T00:43:13;4.00;99.90
19734;DHT22;10018;51.230;7.860;2024-01-27T00:45:39;4.00;99.90
19734;DHT22;10018;51.230;7.860;2024-01-27T00:48:05;4.00;99.90
19734;DHT22;10018;51.230;7.860;2024-01-27T00:50:33;3.90;99.90
19734;DHT22;10018;51.230;7.860;2024-01-27T00:53:03;3.80;99.90
19734;DHT22;10018;51.230;7.860;2024-01-27T00:55:29;3.80;99.90
19734;DHT22;10018;51.230;7.860;2024-01-27T00:57:54;3.80;99.90
19734;DHT22;10018;51.230;7.860;2024-01-27T01:00:20;3.70;99.90
19734;DHT22;10018;51.230;7.860;2024-01-27T01:02:48;3.70;99.90
19734;DHT22;10018;51.230;7.860;2024-01-27T01:05:13;3.70;99.90
19734;DHT22;10018;51.230;7.860;2024-01-27T01:07:39;3.70;99.90
19734;DHT22;10018;51.230;7.860;2024-01-27T01:10:05;3.70;99.90
19734;DHT22;10018;51.230;7.860;2024-01-27T01:12:31;3.70;99.90
19734;DHT22;10018;51.230;7.860;2024-01-27T01:14:57;3.70;99.90
19734;DHT22;10018;51.230;7.860;2024-01-27T01:17:22;3.70;99.90
19734;DHT22;10018;51.230;7.860;2024-01-27T01:19:48;3.70;99.90
19734;DHT22;10018;51.230;7.860;2024-01-27T01:22:14;3.60;99.90
19734;DHT22;10018;51.230;7.860;2024-01-27T01:24:42;3.60;99.90
19734;DHT22;10018;51.230;7.860;2024-01-27T01:27:10;3.50;99.90
19734;DHT22;10018;51.230;7.860;2024-01-27T01:29:36;3.40;99.90
19734;DHT22;10018;51.230;7.860;2024-01-27T01:32:01;3.30;99.90
19734;DHT22;10018;51.230;7.860;2024-01-27T01:34:28;3.30;99.90
19734;DHT22;10018;51.230;7.860;2024-01-27T01:36:54;3.20;99.90
19734;DHT22;10018;51.230;7.860;2024-01-27T01:39:22;3.00;99.90
19734;DHT22;10018;51.230;7.860;2024-01-27T01:41:47;2.90;99.90
19734;DHT22;10018;51.230;7.860;2024-01-27T01:44:15;2.90;99.90
19734;DHT22;10018;51.230;7.860;2024-01-27T01:46:41;2.80;99.90
19734;DHT22;10018;51.230;7.860;2024-01-27T01:49:09;2.90;99.90
19734;DHT22;10018;51.230;7.860;2024-01-27T01:51:35;2.80;99.90
19734;DHT22;10018;51.230;7.860;2024-01-27T01:54:01;2.80;99.90
19734;DHT22;10018;51.230;7.860;2024-01-27T01:56:27;2.70;99.90
19734;DHT22;10018;51.230;7.860;2024-01-27T01:58:54;2.70;99.90
19734;DHT22;10018;51.230;7.860;2024-01-27T02:01:22;2.60;99.90
19734;DHT22;10018;51.230;7.860;2024-01-27T02:03:57;2.60;99.90
19734;DHT22;10018;51.230;7.860;2024-01-27T02:06:25;2.50;99.90
19734;DHT22;10018;51.230;7.860;2024-01-27T02:08:51;2.50;99.90
19734;DHT22;10018;51.230;7.860;2024-01-27T02:11:17;2.50;99.90
19734;DHT22;10018;51.230;7.860;2024-01-27T02:13:47;2.40;99.90
19734;DHT22;10018;51.230;7.860;2024-01-27T02:16:12;2.30;99.90
19734;DHT22;10018;51.230;7.860;2024-01-27T02:18:38;2.20;99.90
19734;DHT22;10018;51.230;7.860;2024-01-27T02:21:03;2.20;99.90
19734;DHT22;10018;51.230;7.860;2024-01-27T02:23:29;2.20;99.90
19734;DHT22;10018;51.230;7.860;2024-01-27T02:25:55;2.20;99.90
19734;DHT22;10018;51.230;7.860;2024-01-27T02:28:23;2.10;99.90
19734;DHT22;10018;51.230;7.860;2024-01-27T02:30:49;2.10;99.90
19734;DHT22;10018;51.230;7.860;2024-01-27T02:33:14;2.10;99.90
19734;DHT22;10018;51.230;7.860;2024-01-27T02:35:40;2.00;99.90
19734;DHT22;10018;51.230;7.860;2024-01-27T02:38:05;2.00;99.90
19734;DHT22;10018;51.230;7.860;2024-01-27T02:40:31;1.90;99.90
19734;DHT22;10018;51.230;7.860;2024-01-27T02:42:56;1.90;99.90
19734;DHT22;10018;51.230;7.860;2024-01-27T02:45:22;1.90;99.90
19734;DHT22;10018;51.230;7.860;2024-01-27T02:47:47;1.80;99.90
19734;DHT22;10018;51.230;7.860;2024-01-27T02:50:13;1.80;99.90
19734;DHT22;10018;51.230;7.860;2024-01-27T02:52:39;1.70;99.90
19734;DHT22;10018;51.230;7.860;2024-01-27T02:55:05;1.70;99.90
19734;DHT22;10018;51.230;7.860;2024-01-27T02:57:31;1.60;99.90
19734;DHT22;10018;51.230;7.860;2024-01-27T02:59:56;1.70;99.90
19734;DHT22;10018;51.230;7.860;2024-01-27T03:02:24;1.60;99.90
19734;DHT22;10018;51.230;7.860;2024-01-27T03:04:50;1.50;99.90
19734;DHT22;10018;51.230;7.860;2024-01-27T03:07:16;1.40;99.90
19734;DHT22;10018;51.230;7.860;2024-01-27T03:09:41;1.40;99.90
19734;DHT22;10018;51.230;7.860;2024-01-27T03:12:07;1.40;99.90
19734;DHT22;10018;51.230;7.860;2024-01-27T03:14:33;1.40;99.90
19734;DHT22;10018;51.230;7.860;2024-01-27T03:17:01;1.30;99.90
19734;DHT22;10018;51.230;7.860;2024-01-27T03:19:28;1.20;99.90
19734;DHT22;10018;51.230;7.860;2024-01-27T03:21:54;1.20;99.90
19734;DHT22;10018;51.230;7.860;2024-01-27T03:24:20;1.30;99.90
19734;DHT22;10018;51.230;7.860;2024-01-27T03:26:45;1.20;99.90
19734;DHT22;10018;51.230;7.860;2024-01-27T03:29:13;1.20;99.90
19734;DHT22;10018;51.230;7.860;2024-01-27T03:31:38;1.10;99.90
19734;DHT22;10018;51.230;7.860;2024-01-27T03:34:05;1.10;99.90
19734;DHT22;10018;51.230;7.860;2024-01-27T03:36:30;1.10;99.90
19734;DHT22;10018;51.230;7.860;2024-01-27T03:38:58;1.10;99.90
19734;DHT22;10018;51.230;7.860;2024-01-27T03:41:24;1.00;99.90
19734;DHT22;10018;51.230;7.860;2024-01-27T03:43:49;1.00;99.90
19734;DHT22;10018;51.230;7.860;2024-01-27T03:46:17;0.90;99.90
19734;DHT22;10018;51.230;7.860;2024-01-27T03:48:45;0.90;99.90
19734;DHT22;10018;51.230;7.860;2024-01-27T03:51:11;0.80;99.90
19734;DHT22;10018;51.230;7.860;2024-01-27T03:53:36;0.90;99.90
19734;DHT22;10018;51.230;7.860;2024-01-27T03:56:02;0.90;99.90
19734;DHT22;10018;51.230;7.860;2024-01-27T03:58:29;0.90;99.90
19734;DHT22;10018;51.230;7.860;2024-01-27T04:00:56;0.80;99.90
19734;DHT22;10018;51.230;7.860;2024-01-27T04:03:22;0.70;99.90
19734;DHT22;10018;51.230;7.860;2024-01-27T04:05:48;0.70;99.90
19734;DHT22;10018;51.230;7.860;2024-01-27T04:08:13;0.70;99.90
19734;DHT22;10018;51.230;7.860;2024-01-27T04:10:39;0.70;99.90
19734;DHT22;10018;51.230;7.860;2024-01-27T04:13:05;0.60;99.90
19734;DHT22;10018;51.230;7.860;2024-01-27T04:15:33;0.60;99.90
19734;DHT22;10018;51.230;7.860;2024-01-27T04:18:04;0.60;99.90
19734;DHT22;10018;51.230;7.860;2024-01-27T04:20:30;0.60;99.90
19734;DHT22;10018;51.230;7.860;2024-01-27T04:22:56;0.60;99.90
19734;DHT22;10018;51.230;7.860;2024-01-27T04:25:21;0.60;99.90
19734;DHT22;10018;51.230;7.860;2024-01-27T04:27:47;0.50;99.90
19734;DHT22;10018;51.230;7.860;2024-01-27T04:30:12;0.50;99.90
19734;DHT22;10018;51.230;7.860;2024-01-27T04:32:38;0.50;99.90
19734;DHT22;10018;51.230;7.860;2024-01-27T04:35:04;0.40;99.90
19734;DHT22;10018;51.230;7.860;2024-01-27T04:37:33;0.40;99.90
19734;DHT22;10018;51.230;7.860;2024-01-27T04:39:59;0.40;99.90
19734;DHT22;10018;51.230;7.860;2024-01-27T04:42:27;0.40;99.90
19734;DHT22;10018;51.230;7.860;2024-01-27T04:44:53;0.40;99.90
19734;DHT22;10018;51.230;7.860;2024-01-27T04:47:18;0.40;99.90
19734;DHT22;10018;51.230;7.860;2024-01-27T04:49:44;0.40;99.90
19734;DHT22;10018;51.230;7.860;2024-01-27T04:52:09;0.40;99.90
19734;DHT22;10018;51.230;7.860;2024-01-27T04:54:35;0.40;99.90
19734;DHT22;10018;51.230;7.860;2024-01-27T04:57:01;0.40;99.90
19734;DHT22;10018;51.230;7.860;2024-01-27T04:59:26;0.40;99.90
19734;DHT22;10018;51.230;7.860;2024-01-27T05:01:52;0.40;99.90
19734;DHT22;10018;51.230;7.860;2024-01-27T05:04:17;0.40;99.90
19734;DHT22;10018;51.230;7.860;2024-01-27T05:06:46;0.30;99.90
19734;DHT22;10018;51.230;7.860;2024-01-27T05:09:12;0.30;99.90
19734;DHT22;10018;51.230;7.860;2024-01-27T05:11:37;0.30;99.90
19734;DHT22;10018;51.230;7.860;2024-01-27T05:14:03;0.30;99.90
19734;DHT22;10018;51.230;7.860;2024-01-27T05:16:29;0.30;99.90
19734;DHT22;10018;51.230;7.860;2024-01-27T05:18:55;0.20;99.90
19734;DHT22;10018;51.230;7.860;2024-01-27T05:21:20;0.20;99.90
19734;DHT22;10018;51.230;7.860;2024-01-27T05:23:46;0.20;99.90
19734;DHT22;10018;51.230;7.860;2024-01-27T05:26:12;0.20;99.90
19734;DHT22;10018;51.230;7.860;2024-01-27T05:28:38;0.20;99.90
19734;DHT22;10018;51.230;7.860;2024-01-27T05:31:07;0.20;99.90
19734;DHT22;10018;51.230;7.860;2024-01-27T05:33:33;0.20;99.90
19734;DHT22;10018;51.230;7.860;2024-01-27T05:36:01;0.10;99.90
19734;DHT22;10018;51.230;7.860;2024-01-27T05:38:29;0.10;99.90
19734;DHT22;10018;51.230;7.860;2024-01-27T05:40:58;0.10;99.90
19734;DHT22;10018;51.230;7.860;2024-01-27T05:43:25;0.10;99.90
19734;DHT22;10018;51.230;7.860;2024-01-27T05:45:51;0.10;99.90
19734;DHT22;10018;51.230;7.860;2024-01-27T05:48:16;0.10;99.90
19734;DHT22;10018;51.230;7.860;2024-01-27T05:50:42;0.10;99.90
19734;DHT22;10018;51.230;7.860;2024-01-27T05:53:08;0.00;99.90
19734;DHT22;10018;51.230;7.860;2024-01-27T05:55:34;0.00;99.90
19734;DHT22;10018;51.230;7.860;2024-01-27T05:58:02;0.10;99.90
19734;DHT22;10018;51.230;7.860;2024-01-27T06:00:27;0.10;99.90
19734;DHT22;10018;51.230;7.860;2024-01-27T06:02:53;0.10;99.90
19734;DHT22;10018;51.230;7.860;2024-01-27T06:05:18;0.00;99.90
19734;DHT22;10018;51.230;7.860;2024-01-27T06:07:44;0.00;99.90
19734;DHT22;10018;51.230;7.860;2024-01-27T06:10:11;0.10;99.90
19734;DHT22;10018;51.230;7.860;2024-01-27T06:12:38;0.00;99.90
19734;DHT22;10018;51.230;7.860;2024-01-27T06:15:04;0.00;99.90
19734;DHT22;10018;51.230;7.860;2024-01-27T06:17:31;0.00;99.90
19734;DHT22;10018;51.230;7.860;2024-01-27T06:19:56;0.00;99.90
19734;DHT22;10018;51.230;7.860;2024-01-27T06:22:22;-0.10;99.90
19734;DHT22;10018;51.230;7.860;2024-01-27T06:24:48;-0.10;99.90
19734;DHT22;10018;51.230;7.860;2024-01-27T06:27:13;-0.10;99.90
19734;DHT22;10018;51.230;7.860;2024-01-27T06:29:41;-0.10;99.90
19734;DHT22;10018;51.230;7.860;2024-01-27T06:32:09;-0.10;99.90
19734;DHT22;10018;51.230;7.860;2024-01-27T06:34:37;-0.10;99.90
19734;DHT22;10018;51.230;7.860;2024-01-27T06:37:03;-0.10;99.90
19734;DHT22;10018;51.230;7.860;2024-01-27T06:39:29;-0.10;99.90
19734;DHT22;10018;51.230;7.860;2024-01-27T06:41:54;-0.10;99.90
19734;DHT22;10018;51.230;7.860;2024-01-27T06:44:20;-0.20;99.90
19734;DHT22;10018;51.230;7.860;2024-01-27T06:46:46;-0.20;99.90
19734;DHT22;10018;51.230;7.860;2024-01-27T06:49:18;-0.10;99.90
19734;DHT22;10018;51.230;7.860;2024-01-27T06:51:44;-0.20;99.90
19734;DHT22;10018;51.230;7.860;2024-01-27T06:54:09;-0.10;99.90
19734;DHT22;10018;51.230;7.860;2024-01-27T06:56:35;-0.20;99.90
19734;DHT22;10018;51.230;7.860;2024-01-27T06:59:00;-0.20;99.90
19734;DHT22;10018;51.230;7.860;2024-01-27T07:01:26;-0.20;99.90
19734;DHT22;10018;51.230;7.860;2024-01-27T07:03:52;-0.20;99.90
19734;DHT22;10018;51.230;7.860;2024-01-27T07:06:22;-0.20;99.90
19734;DHT22;10018;51.230;7.860;2024-01-27T07:08:50;-0.20;99.90
19734;DHT22;10018;51.230;7.860;2024-01-27T07:11:15;-0.20;99.90
19734;DHT22;10018;51.230;7.860;2024-01-27T07:13:41;-0.20;99.90
19734;DHT22;10018;51.230;7.860;2024-01-27T07:16:07;-0.20;99.90
19734;DHT22;10018;51.230;7.860;2024-01-27T07:18:32;-0.20;99.90
19734;DHT22;10018;51.230;7.860;2024-01-27T07:21:00;-0.20;99.90
19734;DHT22;10018;51.230;7.860;2024-01-27T07:23:26;-0.20;99.90
19734;DHT22;10018;51.230;7.860;2024-01-27T07:25:52;-0.20;99.90
19734;DHT22;10018;51.230;7.860;2024-01-27T07:28:17;-0.20;99.90
19734;DHT22;10018;51.230;7.860;2024-01-27T07:30:44;-0.30;99.90
19734;DHT22;10018;51.230;7.860;2024-01-27T07:33:10;-0.30;99.90
19734;DHT22;10018;51.230;7.860;2024-01-27T07:35:35;-0.20;99.90
19734;DHT22;10018;51.230;7.860;2024-01-27T07:38:01;-0.20;99.90
19734;DHT22;10018;51.230;7.860;2024-01-27T07:40:27;-0.20;99.90
19734;DHT22;10018;51.230;7.860;2024-01-27T07:42:52;-0.20;99.90
19734;DHT22;10018;51.230;7.860;2024-01-27T07:45:18;-0.20;99.90
19734;DHT22;10018;51.230;7.860;2024-01-27T07:47:43;-0.20;99.90
19734;DHT22;10018;51.230;7.860;2024-01-27T07:50:09;-0.20;99.90
19734;DHT22;10018;51.230;7.860;2024-01-27T07:52:36;-0.20;99.90
19734;DHT22;10018;51.230;7.860;2024-01-27T07:55:01;-0.20;99.90
19734;DHT22;10018;51.230;7.860;2024-01-27T07:57:28;-0.20;99.90
19734;DHT22;10018;51.230;7.860;2024-01-27T07:59:53;-0.10;99.90
19734;DHT22;10018;51.230;7.860;2024-01-27T08:02:19;-0.10;99.90
19734;DHT22;10018;51.230;7.860;2024-01-27T08:04:44;-0.10;99.90
19734;DHT22;10018;51.230;7.860;2024-01-27T08:07:10;-0.10;99.90
19734;DHT22;10018;51.230;7.860;2024-01-27T08:09:36;-0.10;99.90
19734;DHT22;10018;51.230;7.860;2024-01-27T08:12:03;0.00;99.90
19734;DHT22;10018;51.230;7.860;2024-01-27T08:14:29;0.00;99.90
19734;DHT22;10018;51.230;7.860;2024-01-27T08:16:57;0.00;99.90
19734;DHT22;10018;51.230;7.860;2024-01-27T08:19:24;0.00;99.90
19734;DHT22;10018;51.230;7.860;2024-01-27T08:21:49;0.00;99.90
19734;DHT22;10018;51.230;7.860;2024-01-27T08:24:15;0.10;99.90
19734;DHT22;10018;51.230;7.860;2024-01-27T08:26:41;0.10;99.90
19734;DHT22;10018;51.230;7.860;2024-01-27T08:29:08;0.10;99.90
19734;DHT22;10018;51.230;7.860;2024-01-27T08:31:34;0.20;99.90
19734;DHT22;10018;51.230;7.860;2024-01-27T08:33:59;0.20;99.90
19734;DHT22;10018;51.230;7.860;2024-01-27T08:36:25;0.20;99.90
19734;DHT22;10018;51.230;7.860;2024-01-27T08:38:50;0.30;99.90
19734;DHT22;10018;51.230;7.860;2024-01-27T08:41:16;0.30;99.90
19734;DHT22;10018;51.230;7.860;2024-01-27T08:43:41;0.40;99.90
19734;DHT22;10018;51.230;7.860;2024-01-27T08:46:07;0.40;99.90
19734;DHT22;10018;51.230;7.860;2024-01-27T08:48:38;0.40;99.90
19734;DHT22;10018;51.230;7.860;2024-01-27T08:51:04;0.50;99.90
19734;DHT22;10018;51.230;7.860;2024-01-27T08:53:29;0.50;99.90
19734;DHT22;10018;51.230;7.860;2024-01-27T08:55:55;0.50;99.90
19734;DHT22;10018;51.230;7.860;2024-01-27T08:58:20;0.60;99.90
19734;DHT22;10018;51.230;7.860;2024-01-27T09:00:46;0.70;99.90
19734;DHT22;10018;51.230;7.860;2024-01-27T09:03:12;0.70;99.90
19734;DHT22;10018;51.230;7.860;2024-01-27T09:05:39;0.70;99.90
19734;DHT22;10018;51.230;7.860;2024-01-27T09:08:07;0.70;99.90
19734;DHT22;10018;51.230;7.860;2024-01-27T09:10:33;0.70;99.90
19734;DHT22;10018;51.230;7.860;2024-01-27T09:13:01;0.70;99.90
19734;DHT22;10018;51.230;7.860;2024-01-27T09:15:26;0.80;99.90
19734;DHT22;10018;51.230;7.860;2024-01-27T09:17:52;0.90;99.90
19734;DHT22;10018;51.230;7.860;2024-01-27T09:20:18;1.00;99.90
19734;DHT22;10018;51.230;7.860;2024-01-27T09:22:44;1.00;99.90
19734;DHT22;10018;51.230;7.860;2024-01-27T09:25:13;1.10;99.90
19734;DHT22;10018;51.230;7.860;2024-01-27T09:27:39;1.10;99.90
19734;DHT22;10018;51.230;7.860;2024-01-27T09:30:05;1.20;99.90
19734;DHT22;10018;51.230;7.860;2024-01-27T09:32:32;1.30;99.90
19734;DHT22;10018;51.230;7.860;2024-01-27T09:34:57;1.30;99.90
19734;DHT22;10018;51.230;7.860;2024-01-27T09:37:23;1.40;99.90
19734;DHT22;10018;51.230;7.860;2024-01-27T09:39:49;1.50;99.90
19734;DHT22;10018;51.230;7.860;2024-01-27T09:42:14;1.60;99.90
19734;DHT22;10018;51.230;7.860;2024-01-27T09:44:43;1.70;99.90
19734;DHT22;10018;51.230;7.860;2024-01-27T09:47:11;1.70;99.90
19734;DHT22;10018;51.230;7.860;2024-01-27T09:49:42;1.80;99.90
19734;DHT22;10018;51.230;7.860;2024-01-27T09:52:08;1.80;99.90
19734;DHT22;10018;51.230;7.860;2024-01-27T09:54:34;1.90;99.90
19734;DHT22;10018;51.230;7.860;2024-01-27T09:57:00;1.90;99.90
19734;DHT22;10018;51.230;7.860;2024-01-27T09:59:29;2.00;99.90
19734;DHT22;10018;51.230;7.860;2024-01-27T10:01:56;2.10;99.90
19734;DHT22;10018;51.230;7.860;2024-01-27T10:04:24;2.10;99.90
19734;DHT22;10018;51.230;7.860;2024-01-27T10:06:50;2.10;99.90
19734;DHT22;10018;51.230;7.860;2024-01-27T10:09:17;2.10;99.90
19734;DHT22;10018;51.230;7.860;2024-01-27T10:11:46;2.20;99.90
19734;DHT22;10018;51.230;7.860;2024-01-27T10:14:15;2.30;99.90
19734;DHT22;10018;51.230;7.860;2024-01-27T10:16:44;2.30;99.90
19734;DHT22;10018;51.230;7.860;2024-01-27T10:19:18;2.40;99.90
19734;DHT22;10018;51.230;7.860;2024-01-27T10:21:47;2.40;99.90
19734;DHT22;10018;51.230;7.860;2024-01-27T10:24:14;2.40;99.90
19734;DHT22;10018;51.230;7.860;2024-01-27T10:26:40;2.50;99.90
19734;DHT22;10018;51.230;7.860;2024-01-27T10:29:06;2.50;99.90
19734;DHT22;10018;51.230;7.860;2024-01-27T10:31:34;2.60;99.90
19734;DHT22;10018;51.230;7.860;2024-01-27T10:34:00;2.60;99.90
19734;DHT22;10018;51.230;7.860;2024-01-27T10:36:27;2.70;99.90
19734;DHT22;10018;51.230;7.860;2024-01-27T10:39:14;2.80;99.90
19734;DHT22;10018;51.230;7.860;2024-01-27T10:41:40;2.90;99.90
19734;DHT22;10018;51.230;7.860;2024-01-27T10:44:07;2.90;99.90
19734;DHT22;10018;51.230;7.860;2024-01-27T10:46:35;3.00;99.90
19734;DHT22;10018;51.230;7.860;2024-01-27T10:49:02;3.10;99.90
19734;DHT22;10018;51.230;7.860;2024-01-27T10:51:31;3.20;99.90
19734;DHT22;10018;51.230;7.860;2024-01-27T10:54:02;3.30;99.90
19734;DHT22;10018;51.230;7.860;2024-01-27T10:56:31;3.40;99.90
19734;DHT22;10018;51.230;7.860;2024-01-27T10:58:58;3.40;99.90
19734;DHT22;10018;51.230;7.860;2024-01-27T11:01:24;3.50;99.90
19734;DHT22;10018;51.230;7.860;2024-01-27T11:03:52;3.50;99.90
19734;DHT22;10018;51.230;7.860;2024-01-27T11:06:22;3.60;99.90
19734;DHT22;10018;51.230;7.860;2024-01-27T11:08:49;3.70;99.90
19734;DHT22;10018;51.230;7.860;2024-01-27T11:11:16;3.80;99.90
19734;DHT22;10018;51.230;7.860;2024-01-27T11:13:42;3.80;99.90
19734;DHT22;10018;51.230;7.860;2024-01-27T11:16:16;3.90;99.90
19734;DHT22;10018;51.230;7.860;2024-01-27T11:18:42;4.00;99.90
19734;DHT22;10018;51.230;7.860;2024-01-27T11:21:19;4.10;99.90
19734;DHT22;10018;51.230;7.860;2024-01-27T11:23:45;4.10;99.90
19734;DHT22;10018;51.230;7.860;2024-01-27T11:26:20;4.20;99.90
19734;DHT22;10018;51.230;7.860;2024-01-27T11:28:47;4.30;99.90
19734;DHT22;10018;51.230;7.860;2024-01-27T11:31:12;4.30;99.90
19734;DHT22;10018;51.230;7.860;2024-01-27T11:33:47;4.40;99.90
19734;DHT22;10018;51.230;7.860;2024-01-27T11:36:22;4.50;99.90
19734;DHT22;10018;51.230;7.860;2024-01-27T11:38:49;4.60;99.90
19734;DHT22;10018;51.230;7.860;2024-01-27T11:41:25;4.70;99.90
19734;DHT22;10018;51.230;7.860;2024-01-27T11:43:53;4.70;99.90
19734;DHT22;10018;51.230;7.860;2024-01-27T11:46:18;4.70;99.90
19734;DHT22;10018;51.230;7.860;2024-01-27T11:48:46;4.80;99.90
19734;DHT22;10018;51.230;7.860;2024-01-27T11:51:12;4.90;99.90
19734;DHT22;10018;51.230;7.860;2024-01-27T11:53:38;5.00;99.90
19734;DHT22;10018;51.230;7.860;2024-01-27T11:56:04;5.20;99.90
19734;DHT22;10018;51.230;7.860;2024-01-27T11:58:30;5.30;99.90
19734;DHT22;10018;51.230;7.860;2024-01-27T12:00:59;5.50;99.90
19734;DHT22;10018;51.230;7.860;2024-01-27T12:03:26;5.50;99.90
19734;DHT22;10018;51.230;7.860;2024-01-27T12:05:52;5.50;99.90
19734;DHT22;10018;51.230;7.860;2024-01-27T12:08:18;5.50;99.90
19734;DHT22;10018;51.230;7.860;2024-01-27T12:10:46;5.50;99.90
19734;DHT22;10018;51.230;7.860;2024-01-27T12:13:12;5.60;99.90
19734;DHT22;10018;51.230;7.860;2024-01-27T12:15:38;5.70;99.90
19734;DHT22;10018;51.230;7.860;2024-01-27T12:18:06;5.60;99.90
19734;DHT22;10018;51.230;7.860;2024-01-27T12:20:32;5.70;99.90
19734;DHT22;10018;51.230;7.860;2024-01-27T12:23:05;5.80;99.90
19734;DHT22;10018;51.230;7.860;2024-01-27T12:25:31;6.10;99.90
19734;DHT22;10018;51.230;7.860;2024-01-27T12:27:57;6.30;99.90
19734;DHT22;10018;51.230;7.860;2024-01-27T12:30:26;6.50;99.90
19734;DHT22;10018;51.230;7.860;2024-01-27T12:32:52;6.70;99.90
19734;DHT22;10018;51.230;7.860;2024-01-27T12:35:20;6.90;99.90
19734;DHT22;10018;51.230;7.860;2024-01-27T12:37:46;7.00;99.90
19734;DHT22;10018;51.230;7.860;2024-01-27T12:40:22;7.10;99.90
19734;DHT22;10018;51.230;7.860;2024-01-27T12:42:49;7.20;99.90
19734;DHT22;10018;51.230;7.860;2024-01-27T12:45:15;7.20;99.90
19734;DHT22;10018;51.230;7.860;2024-01-27T12:47:41;7.30;99.90
19734;DHT22;10018;51.230;7.860;2024-01-27T12:50:07;7.40;99.90
19734;DHT22;10018;51.230;7.860;2024-01-27T12:52:33;7.50;99.90
19734;DHT22;10018;51.230;7.860;2024-01-27T12:54:59;7.50;99.90
19734;DHT22;10018;51.230;7.860;2024-01-27T12:57:24;7.60;99.90
19734;DHT22;10018;51.230;7.860;2024-01-27T12:59:50;7.70;99.90
19734;DHT22;10018;51.230;7.860;2024-01-27T13:02:16;7.60;99.90
19734;DHT22;10018;51.230;7.860;2024-01-27T13:04:41;7.70;99.90
19734;DHT22;10018;51.230;7.860;2024-01-27T13:07:08;7.70;99.90
19734;DHT22;10018;51.230;7.860;2024-01-27T13:09:34;7.80;99.90
19734;DHT22;10018;51.230;7.860;2024-01-27T13:12:02;7.80;99.90
19734;DHT22;10018;51.230;7.860;2024-01-27T13:14:29;7.90;99.90
19734;DHT22;10018;51.230;7.860;2024-01-27T13:16:55;7.90;99.90
19734;DHT22;10018;51.230;7.860;2024-01-27T13:19:22;8.00;99.90
19734;DHT22;10018;51.230;7.860;2024-01-27T13:21:47;8.00;99.90
19734;DHT22;10018;51.230;7.860;2024-01-27T13:24:13;8.00;99.90
19734;DHT22;10018;51.230;7.860;2024-01-27T13:26:38;8.00;99.90
19734;DHT22;10018;51.230;7.860;2024-01-27T13:29:04;7.90;99.90
19734;DHT22;10018;51.230;7.860;2024-01-27T13:31:30;7.90;99.90
19734;DHT22;10018;51.230;7.860;2024-01-27T13:33:56;7.90;99.90
19734;DHT22;10018;51.230;7.860;2024-01-27T13:36:27;8.00;99.90
19734;DHT22;10018;51.230;7.860;2024-01-27T13:38:53;8.00;99.90
19734;DHT22;10018;51.230;7.860;2024-01-27T13:41:18;7.90;99.90
19734;DHT22;10018;51.230;7.860;2024-01-27T13:43:44;8.00;99.90
19734;DHT22;10018;51.230;7.860;2024-01-27T13:46:12;8.00;99.90
19734;DHT22;10018;51.230;7.860;2024-01-27T13:48:38;7.90;99.90
19734;DHT22;10018;51.230;7.860;2024-01-27T13:51:06;7.80;99.90
19734;DHT22;10018;51.230;7.860;2024-01-27T13:53:34;7.80;99.90
19734;DHT22;10018;51.230;7.860;2024-01-27T13:55:59;7.80;99.90
19734;DHT22;10018;51.230;7.860;2024-01-27T13:58:29;7.90;99.90
19734;DHT22;10018;51.230;7.860;2024-01-27T14:00:57;8.00;99.90
19734;DHT22;10018;51.230;7.860;2024-01-27T14:03:23;8.20;99.90
19734;DHT22;10018;51.230;7.860;2024-01-27T14:05:49;8.50;99.90
19734;DHT22;10018;51.230;7.860;2024-01-27T14:08:15;8.80;99.90
19734;DHT22;10018;51.230;7.860;2024-01-27T14:10:43;8.80;99.90
19734;DHT22;10018;51.230;7.860;2024-01-27T14:13:09;8.60;99.90
19734;DHT22;10018;51.230;7.860;2024-01-27T14:15:36;8.10;99.90
19734;DHT22;10018;51.230;7.860;2024-01-27T14:18:02;7.80;99.90
19734;DHT22;10018;51.230;7.860;2024-01-27T14:20:29;7.50;99.90
19734;DHT22;10018;51.230;7.860;2024-01-27T14:22:57;7.30;99.90
19734;DHT22;10018;51.230;7.860;2024-01-27T14:25:23;7.00;99.90
19734;DHT22;10018;51.230;7.860;2024-01-27T14:27:53;6.70;99.90
19734;DHT22;10018;51.230;7.860;2024-01-27T14:30:19;6.40;99.90
19734;DHT22;10018;51.230;7.860;2024-01-27T14:32:44;6.20;99.90
19734;DHT22;10018;51.230;7.860;2024-01-27T14:35:10;6.00;99.90
19734;DHT22;10018;51.230;7.860;2024-01-27T14:37:36;5.80;99.90
19734;DHT22;10018;51.230;7.860;2024-01-27T14:40:03;5.70;99.90
19734;DHT22;10018;51.230;7.860;2024-01-27T14:42:30;5.60;99.90
19734;DHT22;10018;51.230;7.860;2024-01-27T14:44:55;5.50;99.90
19734;DHT22;10018;51.230;7.860;2024-01-27T14:47:21;5.50;99.90
19734;DHT22;10018;51.230;7.860;2024-01-27T14:49:47;5.50;99.90
19734;DHT22;10018;51.230;7.860;2024-01-27T14:52:13;5.40;99.90
19734;DHT22;10018;51.230;7.860;2024-01-27T14:54:38;5.40;99.90
19734;DHT22;10018;51.230;7.860;2024-01-27T14:57:07;5.40;99.90
19734;DHT22;10018;51.230;7.860;2024-01-27T14:59:35;5.40;99.90
19734;DHT22;10018;51.230;7.860;2024-01-27T15:02:00;5.40;99.90
19734;DHT22;10018;51.230;7.860;2024-01-27T15:04:27;5.30;99.90
19734;DHT22;10018;51.230;7.860;2024-01-27T15:06:53;5.10;99.90
19734;DHT22;10018;51.230;7.860;2024-01-27T15:09:20;5.10;99.90
19734;DHT22;10018;51.230;7.860;2024-01-27T15:11:45;5.00;99.90
19734;DHT22;10018;51.230;7.860;2024-01-27T15:14:11;5.00;99.90
19734;DHT22;10018;51.230;7.860;2024-01-27T15:16:37;5.00;99.90
19734;DHT22;10018;51.230;7.860;2024-01-27T15:19:03;4.90;99.90
19734;DHT22;10018;51.230;7.860;2024-01-27T15:21:28;4.90;99.90
19734;DHT22;10018;51.230;7.860;2024-01-27T15:23:59;4.90;99.90
19734;DHT22;10018;51.230;7.860;2024-01-27T15:26:25;4.80;99.90
19734;DHT22;10018;51.230;7.860;2024-01-27T15:28:50;4.70;99.90
19734;DHT22;10018;51.230;7.860;2024-01-27T15:31:16;4.50;99.90
19734;DHT22;10018;51.230;7.860;2024-01-27T15:33:42;4.50;99.90
19734;DHT22;10018;51.230;7.860;2024-01-27T15:36:08;4.40;99.90
19734;DHT22;10018;51.230;7.860;2024-01-27T15:38:34;4.40;99.90
19734;DHT22;10018;51.230;7.860;2024-01-27T15:40:59;4.30;99.90